sensor_id;sensor_type;location;lat;lon;timestamp;P1;durP1;ratioP1;P2;durP2;ratioP2
66145;SDS011;52948;60.040;30.320;2023-07-31T00:00:51;9.65;;;5.32;;
66145;SDS011;52948;60.040;30.320;2023-07-31T00:05:53;12.57;;;4.60;;
66145;SDS011;52948;60.040;30.320;2023-07-31T00:10:55;11.27;;;4.93;;
66145;SDS011;52948;60.040;30.320;2023-07-31T00:15:59;12.88;;;4.85;;
66145;SDS011;52948;60.040;30.320;2023-07-31T00:21:01;12.18;;;4.72;;
66145;SDS011;52948;60.040;30.320;2023-07-31T00:26:03;10.52;;;4.78;;
66145;SDS011;52948;60.040;30.320;2023-07-31T00:31:05;11.30;;;5.28;;
66145;SDS011;52948;60.040;30.320;2023-07-31T00:36:07;9.18;;;4.57;;
66145;SDS011;52948;60.040;30.320;2023-07-31T00:41:09;8.80;;;4.90;;
66145;SDS011;52948;60.040;30.320;2023-07-31T00:46:11;11.65;;;5.22;;
66145;SDS011;52948;60.040;30.320;2023-07-31T00:51:14;11.80;;;4.85;;
66145;SDS011;52948;60.040;30.320;2023-07-31T00:56:16;12.70;;;5.25;;
66145;SDS011;52948;60.040;30.320;2023-07-31T01:01:18;9.60;;;4.72;;
66145;SDS011;52948;60.040;30.320;2023-07-31T01:06:27;11.93;;;5.05;;
66145;SDS011;52948;60.040;30.320;2023-07-31T01:11:38;8.73;;;4.40;;
66145;SDS011;52948;60.040;30.320;2023-07-31T01:16:45;10.75;;;4.38;;
66145;SDS011;52948;60.040;30.320;2023-07-31T01:21:53;8.88;;;4.65;;
66145;SDS011;52948;60.040;30.320;2023-07-31T01:27:23;10.40;;;5.22;;
66145;SDS011;52948;60.040;30.320;2023-07-31T01:32:28;12.97;;;5.47;;
66145;SDS011;52948;60.040;30.320;2023-07-31T01:37:31;10.13;;;4.93;;
66145;SDS011;52948;60.040;30.320;2023-07-31T01:42:33;6.55;;;4.80;;
66145;SDS011;52948;60.040;30.320;2023-07-31T01:47:35;8.63;;;4.85;;
66145;SDS011;52948;60.040;30.320;2023-07-31T01:52:37;6.70;;;4.18;;
66145;SDS011;52948;60.040;30.320;2023-07-31T01:57:41;8.80;;;4.57;;
66145;SDS011;52948;60.040;30.320;2023-07-31T02:02:43;8.95;;;4.95;;
66145;SDS011;52948;60.040;30.320;2023-07-31T02:07:45;8.30;;;4.53;;
66145;SDS011;52948;60.040;30.320;2023-07-31T02:12:48;10.35;;;5.22;;
66145;SDS011;52948;60.040;30.320;2023-07-31T02:17:50;8.23;;;4.80;;
66145;SDS011;52948;60.040;30.320;2023-07-31T02:22:52;11.77;;;5.30;;
66145;SDS011;52948;60.040;30.320;2023-07-31T02:27:55;10.27;;;5.25;;
66145;SDS011;52948;60.040;30.320;2023-07-31T02:32:57;11.88;;;5.28;;
66145;SDS011;52948;60.040;30.320;2023-07-31T02:37:59;9.25;;;4.93;;
66145;SDS011;52948;60.040;30.320;2023-07-31T02:43:02;11.40;;;4.78;;
66145;SDS011;52948;60.040;30.320;2023-07-31T02:48:04;7.97;;;4.68;;
66145;SDS011;52948;60.040;30.320;2023-07-31T02:53:07;6.80;;;5.00;;
66145;SDS011;52948;60.040;30.320;2023-07-31T02:58:10;10.85;;;4.82;;
66145;SDS011;52948;60.040;30.320;2023-07-31T03:03:12;8.15;;;4.20;;
66145;SDS011;52948;60.040;30.320;2023-07-31T03:08:14;10.88;;;5.80;;
66145;SDS011;52948;60.040;30.320;2023-07-31T03:13:17;8.68;;;4.47;;
66145;SDS011;52948;60.040;30.320;2023-07-31T03:18:19;6.53;;;5.07;;
66145;SDS011;52948;60.040;30.320;2023-07-31T03:23:21;7.63;;;4.15;;
66145;SDS011;52948;60.040;30.320;2023-07-31T03:28:23;8.27;;;4.57;;
66145;SDS011;52948;60.040;30.320;2023-07-31T03:33:25;6.53;;;4.40;;
66145;SDS011;52948;60.040;30.320;2023-07-31T03:38:28;7.18;;;5.13;;
66145;SDS011;52948;60.040;30.320;2023-07-31T03:43:30;7.53;;;4.47;;
66145;SDS011;52948;60.040;30.320;2023-07-31T03:48:32;5.63;;;4.20;;
66145;SDS011;52948;60.040;30.320;2023-07-31T03:53:34;7.85;;;4.82;;
66145;SDS011;52948;60.040;30.320;2023-07-31T03:58:36;7.13;;;4.32;;
66145;SDS011;52948;60.040;30.320;2023-07-31T04:03:38;7.88;;;4.13;;
66145;SDS011;52948;60.040;30.320;2023-07-31T04:08:41;7.35;;;4.60;;
66145;SDS011;52948;60.040;30.320;2023-07-31T04:13:43;6.88;;;4.22;;
66145;SDS011;52948;60.040;30.320;2023-07-31T04:18:45;10.80;;;4.07;;
66145;SDS011;52948;60.040;30.320;2023-07-31T04:23:47;8.27;;;3.92;;
66145;SDS011;52948;60.040;30.320;2023-07-31T04:28:49;5.53;;;3.67;;
66145;SDS011;52948;60.040;30.320;2023-07-31T04:33:51;4.93;;;3.00;;
66145;SDS011;52948;60.040;30.320;2023-07-31T04:38:54;5.93;;;3.30;;
66145;SDS011;52948;60.040;30.320;2023-07-31T04:43:56;7.68;;;2.95;;
66145;SDS011;52948;60.040;30.320;2023-07-31T04:48:58;3.42;;;2.65;;
66145;SDS011;52948;60.040;30.320;2023-07-31T04:54:00;2.72;;;2.17;;
66145;SDS011;52948;60.040;30.320;2023-07-31T04:59:03;2.63;;;2.40;;
66145;SDS011;52948;60.040;30.320;2023-07-31T05:04:05;3.17;;;2.20;;
66145;SDS011;52948;60.040;30.320;2023-07-31T05:09:07;3.10;;;2.35;;
66145;SDS011;52948;60.040;30.320;2023-07-31T05:14:11;5.38;;;2.17;;
66145;SDS011;52948;60.040;30.320;2023-07-31T05:19:13;3.55;;;1.95;;
66145;SDS011;52948;60.040;30.320;2023-07-31T05:24:16;2.80;;;1.75;;
66145;SDS011;52948;60.040;30.320;2023-07-31T05:29:18;2.67;;;1.80;;
66145;SDS011;52948;60.040;30.320;2023-07-31T05:34:20;2.35;;;1.88;;
66145;SDS011;52948;60.040;30.320;2023-07-31T05:39:22;2.58;;;1.77;;
66145;SDS011;52948;60.040;30.320;2023-07-31T05:44:24;2.38;;;1.60;;
66145;SDS011;52948;60.040;30.320;2023-07-31T05:49:27;3.35;;;2.05;;
66145;SDS011;52948;60.040;30.320;2023-07-31T05:54:29;2.08;;;1.75;;
66145;SDS011;52948;60.040;30.320;2023-07-31T05:59:31;2.33;;;1.90;;
66145;SDS011;52948;60.040;30.320;2023-07-31T06:04:35;2.25;;;2.05;;
66145;SDS011;52948;60.040;30.320;2023-07-31T06:09:37;2.40;;;1.98;;
66145;SDS011;52948;60.040;30.320;2023-07-31T06:14:39;2.83;;;2.00;;
66145;SDS011;52948;60.040;30.320;2023-07-31T06:19:41;4.00;;;1.92;;
66145;SDS011;52948;60.040;30.320;2023-07-31T06:24:44;4.00;;;2.10;;
66145;SDS011;52948;60.040;30.320;2023-07-31T06:29:46;3.58;;;1.83;;
66145;SDS011;52948;60.040;30.320;2023-07-31T06:34:49;2.58;;;2.00;;
66145;SDS011;52948;60.040;30.320;2023-07-31T06:39:52;2.60;;;2.00;;
66145;SDS011;52948;60.040;30.320;2023-07-31T06:44:54;4.22;;;2.15;;
66145;SDS011;52948;60.040;30.320;2023-07-31T06:49:56;2.15;;;1.95;;
66145;SDS011;52948;60.040;30.320;2023-07-31T06:55:17;3.13;;;1.92;;
66145;SDS011;52948;60.040;30.320;2023-07-31T07:00:22;1.77;;;1.33;;
66145;SDS011;52948;60.040;30.320;2023-07-31T07:05:24;2.35;;;1.05;;
66145;SDS011;52948;60.040;30.320;2023-07-31T07:10:26;2.53;;;1.27;;
66145;SDS011;52948;60.040;30.320;2023-07-31T07:15:29;1.35;;;1.00;;
66145;SDS011;52948;60.040;30.320;2023-07-31T07:20:31;2.20;;;1.33;;
66145;SDS011;52948;60.040;30.320;2023-07-31T07:25:35;2.33;;;1.45;;
66145;SDS011;52948;60.040;30.320;2023-07-31T07:30:39;3.80;;;1.55;;
66145;SDS011;52948;60.040;30.320;2023-07-31T07:35:42;4.70;;;1.33;;
66145;SDS011;52948;60.040;30.320;2023-07-31T07:40:44;2.33;;;1.40;;
66145;SDS011;52948;60.040;30.320;2023-07-31T07:45:48;1.50;;;1.40;;
66145;SDS011;52948;60.040;30.320;2023-07-31T07:50:51;2.13;;;1.60;;
66145;SDS011;52948;60.040;30.320;2023-07-31T07:55:53;1.58;;;1.30;;
66145;SDS011;52948;60.040;30.320;2023-07-31T08:00:55;1.30;;;1.20;;
66145;SDS011;52948;60.040;30.320;2023-07-31T08:05:59;1.50;;;1.40;;
66145;SDS011;52948;60.040;30.320;2023-07-31T08:11:01;2.67;;;1.63;;
66145;SDS011;52948;60.040;30.320;2023-07-31T08:16:04;2.38;;;1.50;;
66145;SDS011;52948;60.040;30.320;2023-07-31T08:21:06;2.83;;;1.70;;
66145;SDS011;52948;60.040;30.320;2023-07-31T08:26:14;2.75;;;1.50;;
66145;SDS011;52948;60.040;30.320;2023-07-31T08:31:19;3.13;;;1.80;;
66145;SDS011;52948;60.040;30.320;2023-07-31T08:36:22;2.90;;;2.05;;
66145;SDS011;52948;60.040;30.320;2023-07-31T08:41:24;2.33;;;2.05;;
66145;SDS011;52948;60.040;30.320;2023-07-31T08:46:27;2.50;;;1.65;;
66145;SDS011;52948;60.040;30.320;2023-07-31T08:51:29;3.10;;;1.90;;
66145;SDS011;52948;60.040;30.320;2023-07-31T08:56:32;2.33;;;1.90;;
66145;SDS011;52948;60.040;30.320;2023-07-31T09:01:37;2.28;;;1.80;;
66145;SDS011;52948;60.040;30.320;2023-07-31T09:06:40;4.13;;;1.98;;
66145;SDS011;52948;60.040;30.320;2023-07-31T09:11:44;1.52;;;1.42;;
66145;SDS011;52948;60.040;30.320;2023-07-31T09:16:56;2.47;;;1.67;;
66145;SDS011;52948;60.040;30.320;2023-07-31T09:22:00;2.42;;;1.60;;
66145;SDS011;52948;60.040;30.320;2023-07-31T09:27:02;2.78;;;1.80;;
66145;SDS011;52948;60.040;30.320;2023-07-31T09:32:04;2.10;;;1.70;;
66145;SDS011;52948;60.040;30.320;2023-07-31T09:37:17;4.40;;;1.70;;
66145;SDS011;52948;60.040;30.320;2023-07-31T09:42:24;2.47;;;1.85;;
66145;SDS011;52948;60.040;30.320;2023-07-31T09:47:28;1.77;;;1.48;;
66145;SDS011;52948;60.040;30.320;2023-07-31T09:52:32;2.17;;;1.58;;
66145;SDS011;52948;60.040;30.320;2023-07-31T09:57:36;2.45;;;1.40;;
66145;SDS011;52948;60.040;30.320;2023-07-31T10:02:42;1.42;;;1.30;;
66145;SDS011;52948;60.040;30.320;2023-07-31T10:07:56;2.42;;;1.58;;
66145;SDS011;52948;60.040;30.320;2023-07-31T10:12:59;3.30;;;1.50;;
66145;SDS011;52948;60.040;30.320;2023-07-31T10:18:01;1.83;;;1.50;;
66145;SDS011;52948;60.040;30.320;2023-07-31T10:23:04;2.95;;;1.30;;
66145;SDS011;52948;60.040;30.320;2023-07-31T10:28:07;2.40;;;1.60;;
66145;SDS011;52948;60.040;30.320;2023-07-31T10:33:10;2.10;;;1.42;;
66145;SDS011;52948;60.040;30.320;2023-07-31T10:38:13;1.85;;;1.30;;
66145;SDS011;52948;60.040;30.320;2023-07-31T10:43:23;2.97;;;1.73;;
66145;SDS011;52948;60.040;30.320;2023-07-31T10:48:32;1.60;;;1.50;;
66145;SDS011;52948;60.040;30.320;2023-07-31T10:53:35;1.50;;;1.30;;
66145;SDS011;52948;60.040;30.320;2023-07-31T10:58:38;2.85;;;2.08;;
66145;SDS011;52948;60.040;30.320;2023-07-31T11:03:47;2.72;;;1.90;;
66145;SDS011;52948;60.040;30.320;2023-07-31T11:08:51;3.63;;;1.77;;
66145;SDS011;52948;60.040;30.320;2023-07-31T11:13:53;2.90;;;1.80;;
66145;SDS011;52948;60.040;30.320;2023-07-31T11:18:56;2.20;;;1.77;;
66145;SDS011;52948;60.040;30.320;2023-07-31T11:23:58;2.05;;;1.80;;
66145;SDS011;52948;60.040;30.320;2023-07-31T11:29:00;2.75;;;1.65;;
66145;SDS011;52948;60.040;30.320;2023-07-31T11:34:06;1.98;;;1.45;;
66145;SDS011;52948;60.040;30.320;2023-07-31T11:39:09;2.42;;;1.30;;
66145;SDS011;52948;60.040;30.320;2023-07-31T11:44:12;1.98;;;1.52;;
66145;SDS011;52948;60.040;30.320;2023-07-31T11:49:14;3.67;;;1.70;;
66145;SDS011;52948;60.040;30.320;2023-07-31T11:54:17;3.05;;;1.70;;
66145;SDS011;52948;60.040;30.320;2023-07-31T11:59:19;1.90;;;1.70;;
66145;SDS011;52948;60.040;30.320;2023-07-31T12:04:23;4.22;;;1.48;;
66145;SDS011;52948;60.040;30.320;2023-07-31T12:09:26;2.40;;;1.45;;
66145;SDS011;52948;60.040;30.320;2023-07-31T12:14:28;3.15;;;1.80;;
66145;SDS011;52948;60.040;30.320;2023-07-31T12:19:31;2.72;;;1.77;;
66145;SDS011;52948;60.040;30.320;2023-07-31T12:24:33;2.72;;;1.55;;
66145;SDS011;52948;60.040;30.320;2023-07-31T12:29:36;1.90;;;1.70;;
66145;SDS011;52948;60.040;30.320;2023-07-31T12:34:42;3.33;;;1.80;;
66145;SDS011;52948;60.040;30.320;2023-07-31T12:44:47;4.35;;;2.10;;
66145;SDS011;52948;60.040;30.320;2023-07-31T12:49:49;3.78;;;2.28;;
66145;SDS011;52948;60.040;30.320;2023-07-31T12:54:51;1.67;;;1.58;;
66145;SDS011;52948;60.040;30.320;2023-07-31T12:59:53;2.63;;;1.98;;
66145;SDS011;52948;60.040;30.320;2023-07-31T13:04:55;3.08;;;1.70;;
66145;SDS011;52948;60.040;30.320;2023-07-31T13:09:57;2.67;;;1.63;;
66145;SDS011;52948;60.040;30.320;2023-07-31T13:15:00;3.30;;;1.75;;
66145;SDS011;52948;60.040;30.320;2023-07-31T13:20:02;2.78;;;2.08;;
66145;SDS011;52948;60.040;30.320;2023-07-31T13:25:05;3.60;;;1.85;;
66145;SDS011;52948;60.040;30.320;2023-07-31T13:30:08;3.65;;;1.50;;
66145;SDS011;52948;60.040;30.320;2023-07-31T13:35:10;3.13;;;1.63;;
66145;SDS011;52948;60.040;30.320;2023-07-31T13:40:13;2.40;;;1.92;;
66145;SDS011;52948;60.040;30.320;2023-07-31T13:45:16;3.40;;;2.58;;
66145;SDS011;52948;60.040;30.320;2023-07-31T13:50:18;3.90;;;2.35;;
66145;SDS011;52948;60.040;30.320;2023-07-31T13:55:22;5.10;;;2.40;;
66145;SDS011;52948;60.040;30.320;2023-07-31T14:00:25;6.30;;;2.30;;
66145;SDS011;52948;60.040;30.320;2023-07-31T14:05:27;6.05;;;3.10;;
66145;SDS011;52948;60.040;30.320;2023-07-31T14:10:29;3.75;;;2.83;;
66145;SDS011;52948;60.040;30.320;2023-07-31T14:15:31;4.82;;;2.70;;
66145;SDS011;52948;60.040;30.320;2023-07-31T14:20:34;6.82;;;3.10;;
66145;SDS011;52948;60.040;30.320;2023-07-31T14:25:36;6.72;;;3.03;;
66145;SDS011;52948;60.040;30.320;2023-07-31T14:30:38;5.15;;;3.50;;
66145;SDS011;52948;60.040;30.320;2023-07-31T14:35:40;5.38;;;3.13;;
66145;SDS011;52948;60.040;30.320;2023-07-31T14:40:42;5.40;;;3.33;;
66145;SDS011;52948;60.040;30.320;2023-07-31T14:45:44;5.22;;;3.15;;
66145;SDS011;52948;60.040;30.320;2023-07-31T14:50:48;5.00;;;2.88;;
66145;SDS011;52948;60.040;30.320;2023-07-31T14:55:50;7.97;;;3.03;;
66145;SDS011;52948;60.040;30.320;2023-07-31T15:00:52;4.68;;;2.35;;
66145;SDS011;52948;60.040;30.320;2023-07-31T15:05:56;5.45;;;2.60;;
66145;SDS011;52948;60.040;30.320;2023-07-31T15:10:58;5.45;;;2.70;;
66145;SDS011;52948;60.040;30.320;2023-07-31T15:16:01;4.00;;;2.50;;
66145;SDS011;52948;60.040;30.320;2023-07-31T15:21:03;5.88;;;2.70;;
66145;SDS011;52948;60.040;30.320;2023-07-31T15:31:35;6.68;;;3.25;;
66145;SDS011;52948;60.040;30.320;2023-07-31T15:36:37;6.22;;;2.88;;
66145;SDS011;52948;60.040;30.320;2023-07-31T15:41:40;4.43;;;2.00;;
66145;SDS011;52948;60.040;30.320;2023-07-31T15:46:42;4.93;;;2.80;;
66145;SDS011;52948;60.040;30.320;2023-07-31T15:51:44;6.78;;;3.30;;
66145;SDS011;52948;60.040;30.320;2023-07-31T15:56:47;7.63;;;3.30;;
66145;SDS011;52948;60.040;30.320;2023-07-31T16:01:55;2.00;;;1.65;;
66145;SDS011;52948;60.040;30.320;2023-07-31T16:06:57;3.28;;;2.10;;
66145;SDS011;52948;60.040;30.320;2023-07-31T16:11:59;4.53;;;2.10;;
66145;SDS011;52948;60.040;30.320;2023-07-31T16:17:01;3.47;;;2.20;;
66145;SDS011;52948;60.040;30.320;2023-07-31T16:22:04;4.28;;;2.40;;
66145;SDS011;52948;60.040;30.320;2023-07-31T16:27:07;4.97;;;2.65;;
66145;SDS011;52948;60.040;30.320;2023-07-31T16:32:09;4.70;;;2.85;;
66145;SDS011;52948;60.040;30.320;2023-07-31T16:37:11;4.75;;;2.58;;
66145;SDS011;52948;60.040;30.320;2023-07-31T16:42:14;6.32;;;2.67;;
66145;SDS011;52948;60.040;30.320;2023-07-31T16:47:16;5.72;;;3.10;;
66145;SDS011;52948;60.040;30.320;2023-07-31T16:52:19;4.40;;;3.03;;
66145;SDS011;52948;60.040;30.320;2023-07-31T16:57:21;5.30;;;3.50;;
66145;SDS011;52948;60.040;30.320;2023-07-31T17:02:26;6.05;;;3.22;;
66145;SDS011;52948;60.040;30.320;2023-07-31T17:07:28;6.07;;;3.45;;
66145;SDS011;52948;60.040;30.320;2023-07-31T17:12:31;7.38;;;3.85;;
66145;SDS011;52948;60.040;30.320;2023-07-31T17:17:33;5.13;;;3.90;;
66145;SDS011;52948;60.040;30.320;2023-07-31T17:22:35;4.97;;;2.70;;
66145;SDS011;52948;60.040;30.320;2023-07-31T17:27:37;3.65;;;2.60;;
66145;SDS011;52948;60.040;30.320;2023-07-31T17:32:40;4.82;;;3.20;;
66145;SDS011;52948;60.040;30.320;2023-07-31T17:37:42;2.85;;;2.63;;
66145;SDS011;52948;60.040;30.320;2023-07-31T17:42:45;3.30;;;2.20;;
66145;SDS011;52948;60.040;30.320;2023-07-31T17:47:47;2.35;;;2.15;;
66145;SDS011;52948;60.040;30.320;2023-07-31T17:52:49;5.72;;;2.75;;
66145;SDS011;52948;60.040;30.320;2023-07-31T17:57:51;4.50;;;2.20;;
66145;SDS011;52948;60.040;30.320;2023-07-31T18:02:53;4.18;;;2.55;;
66145;SDS011;52948;60.040;30.320;2023-07-31T18:07:56;3.85;;;2.15;;
66145;SDS011;52948;60.040;30.320;2023-07-31T18:12:58;7.05;;;2.92;;
66145;SDS011;52948;60.040;30.320;2023-07-31T18:18:00;3.78;;;2.45;;
66145;SDS011;52948;60.040;30.320;2023-07-31T18:23:02;4.00;;;2.55;;
66145;SDS011;52948;60.040;30.320;2023-07-31T18:28:05;8.52;;;3.42;;
66145;SDS011;52948;60.040;30.320;2023-07-31T18:33:07;4.38;;;2.40;;
66145;SDS011;52948;60.040;30.320;2023-07-31T18:38:09;6.57;;;3.17;;
66145;SDS011;52948;60.040;30.320;2023-07-31T18:43:12;4.63;;;3.13;;
66145;SDS011;52948;60.040;30.320;2023-07-31T18:48:14;5.47;;;3.20;;
66145;SDS011;52948;60.040;30.320;2023-07-31T18:53:17;3.60;;;2.63;;
66145;SDS011;52948;60.040;30.320;2023-07-31T18:58:20;5.80;;;2.90;;
66145;SDS011;52948;60.040;30.320;2023-07-31T19:03:22;4.22;;;3.00;;
66145;SDS011;52948;60.040;30.320;2023-07-31T19:08:26;4.88;;;3.10;;
66145;SDS011;52948;60.040;30.320;2023-07-31T19:13:29;5.57;;;3.30;;
66145;SDS011;52948;60.040;30.320;2023-07-31T19:18:31;5.88;;;3.20;;
66145;SDS011;52948;60.040;30.320;2023-07-31T19:23:33;5.25;;;3.20;;
66145;SDS011;52948;60.040;30.320;2023-07-31T19:28:37;4.82;;;3.25;;
66145;SDS011;52948;60.040;30.320;2023-07-31T19:33:39;4.55;;;2.53;;
66145;SDS011;52948;60.040;30.320;2023-07-31T19:38:41;2.28;;;2.00;;
66145;SDS011;52948;60.040;30.320;2023-07-31T19:43:43;5.80;;;3.08;;
66145;SDS011;52948;60.040;30.320;2023-07-31T19:48:46;5.32;;;2.70;;
66145;SDS011;52948;60.040;30.320;2023-07-31T19:53:48;5.68;;;3.25;;
66145;SDS011;52948;60.040;30.320;2023-07-31T19:58:50;4.68;;;3.03;;
66145;SDS011;52948;60.040;30.320;2023-07-31T20:03:52;4.65;;;2.83;;
66145;SDS011;52948;60.040;30.320;2023-07-31T20:08:55;5.93;;;3.00;;
66145;SDS011;52948;60.040;30.320;2023-07-31T20:13:57;4.88;;;2.83;;
66145;SDS011;52948;60.040;30.320;2023-07-31T20:18:59;3.60;;;2.67;;
66145;SDS011;52948;60.040;30.320;2023-07-31T20:24:01;5.55;;;2.72;;
66145;SDS011;52948;60.040;30.320;2023-07-31T20:29:04;4.80;;;3.30;;
66145;SDS011;52948;60.040;30.320;2023-07-31T20:34:06;5.32;;;3.33;;
66145;SDS011;52948;60.040;30.320;2023-07-31T20:39:09;5.88;;;3.72;;
66145;SDS011;52948;60.040;30.320;2023-07-31T20:44:11;4.32;;;3.17;;
66145;SDS011;52948;60.040;30.320;2023-07-31T20:49:13;5.65;;;4.47;;
66145;SDS011;52948;60.040;30.320;2023-07-31T20:54:15;7.57;;;4.15;;
66145;SDS011;52948;60.040;30.320;2023-07-31T20:59:18;6.10;;;3.58;;
66145;SDS011;52948;60.040;30.320;2023-07-31T21:04:21;6.72;;;3.83;;
66145;SDS011;52948;60.040;30.320;2023-07-31T21:09:23;5.50;;;3.95;;
66145;SDS011;52948;60.040;30.320;2023-07-31T21:14:25;6.20;;;4.47;;
66145;SDS011;52948;60.040;30.320;2023-07-31T21:19:27;6.50;;;3.97;;
66145;SDS011;52948;60.040;30.320;2023-07-31T21:24:30;6.63;;;4.10;;
66145;SDS011;52948;60.040;30.320;2023-07-31T21:29:32;9.13;;;4.38;;
66145;SDS011;52948;60.040;30.320;2023-07-31T21:34:34;7.28;;;4.38;;
66145;SDS011;52948;60.040;30.320;2023-07-31T21:39:39;6.25;;;4.45;;
66145;SDS011;52948;60.040;30.320;2023-07-31T21:44:41;12.68;;;6.25;;
66145;SDS011;52948;60.040;30.320;2023-07-31T21:49:44;6.72;;;4.78;;
66145;SDS011;52948;60.040;30.320;2023-07-31T21:54:46;8.82;;;4.78;;
66145;SDS011;52948;60.040;30.320;2023-07-31T21:59:48;7.28;;;4.75;;
66145;SDS011;52948;60.040;30.320;2023-07-31T22:04:50;5.78;;;4.53;;
66145;SDS011;52948;60.040;30.320;2023-07-31T22:09:52;7.13;;;4.95;;
66145;SDS011;52948;60.040;30.320;2023-07-31T22:14:54;6.78;;;4.38;;
66145;SDS011;52948;60.040;30.320;2023-07-31T22:19:57;10.55;;;5.15;;
66145;SDS011;52948;60.040;30.320;2023-07-31T22:24:59;7.63;;;5.53;;
66145;SDS011;52948;60.040;30.320;2023-07-31T22:30:02;6.45;;;5.15;;
66145;SDS011;52948;60.040;30.320;2023-07-31T22:35:04;7.40;;;4.50;;
66145;SDS011;52948;60.040;30.320;2023-07-31T22:40:07;7.18;;;5.10;;
66145;SDS011;52948;60.040;30.320;2023-07-31T22:45:09;6.85;;;5.40;;
66145;SDS011;52948;60.040;30.320;2023-07-31T22:50:12;8.00;;;5.03;;
66145;SDS011;52948;60.040;30.320;2023-07-31T22:55:14;7.28;;;4.82;;
66145;SDS011;52948;60.040;30.320;2023-07-31T23:00:16;9.00;;;5.43;;
66145;SDS011;52948;60.040;30.320;2023-07-31T23:05:18;8.35;;;5.40;;
66145;SDS011;52948;60.040;30.320;2023-07-31T23:10:20;8.52;;;5.53;;
66145;SDS011;52948;60.040;30.320;2023-07-31T23:15:23;7.75;;;4.97;;
66145;SDS011;52948;60.040;30.320;2023-07-31T23:20:25;8.55;;;5.53;;
66145;SDS011;52948;60.040;30.320;2023-07-31T23:25:27;10.13;;;5.43;;
66145;SDS011;52948;60.040;30.320;2023-07-31T23:30:29;8.38;;;5.57;;
66145;SDS011;52948;60.040;30.320;2023-07-31T23:35:32;7.03;;;5.55;;
66145;SDS011;52948;60.040;30.320;2023-07-31T23:40:34;7.78;;;5.78;;
66145;SDS011;52948;60.040;30.320;2023-07-31T23:45:36;8.55;;;5.40;;
66145;SDS011;52948;60.040;30.320;2023-07-31T23:50:38;6.85;;;5.18;;
66145;SDS011;52948;60.040;30.320;2023-07-31T23:55:41;8.13;;;5.65;;
